Terminal Aerodrome Forecast
Issued by NWS Corpus Christi, TX

Home | Current Version | Previous Version | Text Only | Print | Product List | Glossary On
Versions: 1 2 3 4 5 6 7 8 9 10 11 12
000
FTUS44 KCRP 092300
TAFVCT
TAF
KVCT 092329Z 1000/1024 16008KT P6SM FEW020 FEW150
     FM101200 15005KT P6SM VCSH SCT020 SCT150
     FM101500 15011G18KT P6SM VCTS SCT030CB SCT150
     FM102300 16014G20KT P6SM FEW035 SCT150=

USA.gov is the U.S. government's official web portal to all federal, state and local government web resources and services.